Pagina principale
METAR-TAF:

METAR-TAF

Aeroporti :

Aeroporto di Antananarivo-Ivato

Antananarivo, Madagascar

latitudine: 18-48S, longitudine: 047-29E, altezza: 1279 m

Osservazione

Il bollettino è stato emesso 12 minuti fa, alle 14:30 UTC
Vento 8 kt da sud-est, variando fra est e sud
Temperature 17°C
Umidità 42%
Pressione 1022 hPa
Visibilità 10 km o più
Poco nuvoloso ad un'altezza di 2300 ft

METAR: FMMI 211430Z 14008KT 100V170 9999 FEW023 17/04 Q1022 NOSIG

Ora: 17:42 (14:42 UTC)

Previsione

Il bollettino è stato emesso 3 ore e 42 minuti fa, alle 11:00 UTC
Previsione valida dal 21 alle 12 UTC al 22 alle 18 UTC
Vento 10 kt da sud-est
Visibilità 10 km o più
Nuvoloso ad un'altezza di 2000 ft

TAF: FMMI 211100Z 2112/2218 14010KT 9999 BKN020

Osservazioni e previsioni meteorologiche di più di 4000 aeroporti (messaggi METAR e TAF).

Le stazioni disponibili sono rappresentate dai dischi gialli e rossi sulla carta.

Puntare il mouse per vedere il nome della stazione.

Clicca sopra per visualizzare le osservazioni e previsioni meteorologiche.

Per cambiare la mappa : fare clic sui pulsanti verdi con una croce nera per ingrandire, il pulsante verde con un trattino per diminuire, o sulla freccia verde per le mappe adiacenti.


METAR-TAF: